Time;durP1;ratioP1;P1;durP2;ratioP2;P2;SDS_P1;SDS_P2;PMS_P1;PMS_P2;Temp;Humidity;BMP_temperature;BMP_pressure;BME280_temperature;BME280_humidity;BME280_pressure;Samples;Min_cycle;Max_cycle;Signal;HPM_P1;HPM_P2
2020/12/18 09:34:30;;;;;;;52.23;18.20;;;;;;;3.25;100.00;99894.81;5142190;27;20545;-81
2020/12/18 09:36:58;;;;;;;37.73;18.30;;;;;;;3.66;100.00;99877.53;5164484;22;38919;-82
2020/12/18 09:39:25;;;;;;;25.53;16.50;;;;;;;4.04;100.00;99873.31;5066076;28;42716;-85
2020/12/18 09:41:52;;;;;;;18.60;15.87;;;;;;;4.32;100.00;99850.91;5090489;28;42736;-83
2020/12/18 09:44:20;;;;;;;35.47;16.23;;;;;;;4.80;98.41;99877.81;5066312;28;42366;-82
2020/12/18 09:46:47;;;;;;;25.03;14.60;;;;;;;5.04;95.16;99858.00;5083860;28;40130;-83
2020/12/18 09:49:14;;;;;;;40.53;16.27;;;;;;;5.48;92.18;99890.16;5168030;22;40779;-83
2020/12/18 09:51:46;;;;;;;16.90;15.20;;;;;;;5.74;90.11;99892.97;5086816;28;43424;-83
2020/12/18 09:54:13;;;;;;;22.77;14.83;;;;;;;5.93;88.70;99886.38;5086502;28;41535;-83
2020/12/18 09:56:40;;;;;;;17.40;14.23;;;;;;;6.16;88.15;99880.47;5086912;28;42203;-82
2020/12/18 09:59:07;;;;;;;46.70;14.10;;;;;;;6.20;86.70;99866.31;5173572;22;43263;-83
2020/12/18 10:01:34;;;;;;;12.50;11.27;;;;;;;6.28;86.17;99884.53;5066329;28;43443;-82
2020/12/18 10:04:02;;;;;;;26.37;12.00;;;;;;;6.30;85.26;99877.44;5081710;28;41727;-83
2020/12/18 10:06:30;;;;;;;27.50;13.13;;;;;;;6.37;84.96;99879.00;5065213;28;40324;-83
2020/12/18 10:08:58;;;;;;;20.37;12.10;;;;;;;6.38;84.11;99880.72;5082477;28;43056;-83
2020/12/18 10:11:28;;;;;;;15.03;11.40;;;;;;;6.30;83.71;99866.94;5154078;22;44971;-82
2020/12/18 10:13:55;;;;;;;15.63;12.27;;;;;;;6.47;83.82;99883.06;5070835;28;42194;-83
2020/12/18 10:16:22;;;;;;;28.27;12.60;;;;;;;6.65;83.97;99869.38;5067110;28;41271;-82
2020/12/18 10:18:49;;;;;;;12.33;11.03;;;;;;;6.48;81.79;99829.53;5083149;28;42636;-83
2020/12/18 10:21:16;;;;;;;19.90;11.50;;;;;;;6.75;82.53;99855.00;5065719;28;45261;-82
2020/12/18 10:23:43;;;;;;;11.50;10.30;;;;;;;6.77;82.45;99853.19;5186034;22;41980;-83
2020/12/18 10:26:11;;;;;;;17.80;10.97;;;;;;;6.82;82.27;99853.03;5089738;28;39570;-82
2020/12/18 10:28:40;;;;;;;11.80;10.60;;;;;;;6.80;81.89;99849.59;5083464;28;41514;-82
2020/12/18 10:31:07;;;;;;;16.60;10.17;;;;;;;6.67;81.50;99841.25;5066226;28;43138;-82
2020/12/18 10:33:34;;;;;;;11.57;10.47;;;;;;;6.77;82.15;99841.81;5066936;28;43273;-81
2020/12/18 10:36:01;;;;;;;14.67;11.57;;;;;;;6.83;81.40;99855.63;5173437;22;40864;-82
2020/12/18 10:38:30;;;;;;;17.17;10.63;;;;;;;6.85;81.29;99840.66;5087271;28;43448;-82
2020/12/18 10:40:58;;;;;;;17.00;10.73;;;;;;;7.00;80.62;99852.47;5086970;28;44242;-82
2020/12/18 10:43:26;;;;;;;17.50;9.80;;;;;;;7.05;81.35;99852.31;5102965;28;42113;-82
2020/12/18 10:45:53;;;;;;;14.57;10.63;;;;;;;6.95;80.89;99824.53;5176592;22;40048;-82
2020/12/18 10:48:20;;;;;;;13.47;10.60;;;;;;;7.15;80.70;99841.44;5062507;28;42233;-82
2020/12/18 10:50:47;;;;;;;11.73;10.53;;;;;;;7.26;80.71;99843.72;5063745;28;42974;-83
2020/12/18 10:53:15;;;;;;;11.80;10.60;;;;;;;7.08;80.24;99810.94;5034164;28;42363;-82
2020/12/18 10:55:42;;;;;;;12.47;11.27;;;;;;;7.36;80.27;99834.59;5070431;28;40076;-83
2020/12/18 10:58:09;;;;;;;11.53;10.30;;;;;;;7.32;80.25;99830.31;5157295;22;41428;-84
2020/12/18 11:00:39;;;;;;;12.63;10.47;;;;;;;7.41;80.02;99845.84;5052065;28;44256;-81
2020/12/18 11:03:07;;;;;;;13.37;10.87;;;;;;;7.50;80.32;99844.66;5052108;28;42419;-80
2020/12/18 11:05:35;;;;;;;23.30;18.43;;;;;;;7.54;79.95;99836.56;5051288;28;41516;-81
2020/12/18 11:08:02;;;;;;;16.83;14.13;;;;;;;7.62;79.92;99838.09;5052779;28;40580;-80
2020/12/18 11:10:29;;;;;;;14.57;12.87;;;;;;;7.55;79.17;99817.22;5160666;22;43891;-81
2020/12/18 11:12:57;;;;;;;15.67;13.90;;;;;;;7.67;78.96;99825.59;5066543;28;42283;-79
2020/12/18 11:15:24;;;;;;;16.30;13.33;;;;;;;7.77;79.14;99832.31;5049464;28;40725;-80
2020/12/18 11:17:52;;;;;;;17.50;15.13;;;;;;;7.78;79.03;99820.84;5049504;28;42335;-79
2020/12/18 11:20:29;;;;;;;18.00;14.60;;;;;;;7.84;78.43;99839.06;5077888;22;43209;31
2020/12/18 11:22:56;;;;;;;16.27;14.43;;;;;;;7.82;78.29;99822.44;5045066;28;42199;-80
2020/12/18 11:25:23;;;;;;;19.37;15.33;;;;;;;7.71;78.08;99800.88;5030092;28;41346;-80
2020/12/18 11:27:50;;;;;;;16.33;14.17;;;;;;;7.78;77.83;99826.13;5030075;28;42933;-80
2020/12/18 11:30:18;;;;;;;16.00;14.00;;;;;;;7.74;77.44;99819.22;5062893;28;43457;-81
2020/12/18 11:32:46;;;;;;;15.30;13.70;;;;;;;7.76;77.88;99809.47;5114866;22;41893;-80
2020/12/18 11:35:14;;;;;;;14.97;13.47;;;;;;;7.75;77.82;99797.22;5010755;28;40065;-81
2020/12/18 11:37:41;;;;;;;16.90;15.10;;;;;;;7.77;77.99;99808.56;5028459;28;42106;-79
2020/12/18 11:40:08;;;;;;;15.40;13.30;;;;;;;7.77;77.92;99811.22;5011629;28;41881;-80
2020/12/18 11:42:36;;;;;;;15.37;13.73;;;;;;;7.80;77.59;99806.66;5010904;28;43292;-80
2020/12/18 11:45:03;;;;;;;15.73;14.03;;;;;;;7.78;77.97;99786.56;5116456;22;40553;-80
2020/12/18 11:47:32;;;;;;;16.17;14.47;;;;;;;7.88;77.53;99803.75;5028377;28;42335;-80
2020/12/18 11:49:59;;;;;;;16.53;14.83;;;;;;;7.92;77.78;99808.84;5029162;28;42613;-80
2020/12/18 11:52:27;;;;;;;16.20;14.47;;;;;;;7.98;77.23;99799.88;5029653;28;42202;-80
2020/12/18 11:54:54;;;;;;;15.80;14.00;;;;;;;8.04;77.16;99798.75;5011565;28;41154;-81
2020/12/18 11:57:21;;;;;;;16.90;15.17;;;;;;;8.06;76.51;99794.28;5100285;22;40586;-81
2020/12/18 11:59:48;;;;;;;17.30;15.47;;;;;;;8.15;76.76;99796.63;5007923;28;42453;-80
2020/12/18 12:02:15;;;;;;;15.20;13.60;;;;;;;8.28;76.81;99782.88;5013175;28;42472;-80
2020/12/18 12:04:42;;;;;;;14.97;13.47;;;;;;;8.40;76.97;99780.75;5025696;28;39766;-81
2020/12/18 12:07:10;;;;;;;17.53;15.73;;;;;;;8.52;76.99;99773.19;5081464;23;42101;-79
2020/12/18 12:09:38;;;;;;;14.90;13.43;;;;;;;8.68;75.83;99781.34;5029547;28;42129;-81
2020/12/18 12:12:10;;;;;;;16.13;14.43;;;;;;;8.85;75.25;99778.03;5028009;28;42198;-80
2020/12/18 12:14:37;;;;;;;14.87;13.37;;;;;;;9.07;75.71;99778.00;5027947;28;40212;-81
2020/12/18 12:17:05;;;;;;;16.23;13.97;;;;;;;9.25;74.35;99756.09;4995318;28;43102;-81
2020/12/18 12:19:32;;;;;;;14.80;13.30;;;;;;;9.46;74.13;99771.03;5096345;23;44696;-80
2020/12/18 12:21:59;;;;;;;14.57;13.13;;;;;;;9.43;73.91;99754.44;5046928;28;42886;-80
2020/12/18 12:24:26;;;;;;;14.63;13.10;;;;;;;9.52;73.89;99760.16;5030496;28;41152;-81
2020/12/18 12:26:54;;;;;;;14.83;12.60;;;;;;;9.65;73.93;99748.13;5036504;28;41947;-81
2020/12/18 12:29:21;;;;;;;15.53;13.70;;;;;;;9.87;73.27;99755.13;5027335;28;43469;-81
2020/12/18 12:31:48;;;;;;;21.00;13.70;;;;;;;10.01;71.77;99758.00;5115051;22;42161;-79
2020/12/18 12:34:15;;;;;;;14.57;13.13;;;;;;;10.11;71.27;99753.16;5004194;28;39845;-79
2020/12/18 12:36:42;;;;;;;13.93;11.87;;;;;;;10.19;71.62;99743.06;5007954;28;41382;-79
2020/12/18 12:39:09;;;;;;;12.47;11.27;;;;;;;10.11;71.68;99738.13;5006567;28;43828;-79
2020/12/18 12:41:37;;;;;;;14.40;13.00;;;;;;;9.91;71.59;99698.47;5005891;28;42537;-79
2020/12/18 12:44:05;;;;;;;13.97;12.57;;;;;;;10.28;71.43;99734.69;5074687;23;40174;-79
2020/12/18 12:46:36;;;;;;;14.80;13.33;;;;;;;10.29;70.99;99726.69;4987292;28;42406;-79
2020/12/18 12:49:03;;;;;;;14.10;12.60;;;;;;;10.80;70.83;99733.91;4970988;28;43727;-79
2020/12/18 12:51:30;;;;;;;12.90;11.60;;;;;;;11.36;69.70;99734.63;4970452;28;43175;-81
2020/12/18 12:53:57;;;;;;;13.83;12.47;;;;;;;11.57;69.02;99730.84;5066175;22;40939;-80
2020/12/18 12:56:25;;;;;;;14.53;13.03;;;;;;;11.66;68.16;99734.81;5009671;28;42596;-81
2020/12/18 12:58:52;;;;;;;13.03;11.83;;;;;;;11.73;67.50;99733.56;5027240;28;42635;-80
2020/12/18 13:01:20;;;;;;;13.43;12.13;;;;;;;11.97;67.15;99723.47;5010424;28;43005;-81
2020/12/18 13:03:47;;;;;;;13.40;11.70;;;;;;;12.29;67.02;99729.66;5009159;28;40486;-81
2020/12/18 13:06:21;;;;;;;12.83;11.53;;;;;;;12.26;66.13;99720.03;5100956;22;41883;-79
2020/12/18 13:08:48;;;;;;;13.60;12.30;;;;;;;12.25;66.40;99723.63;5010422;28;45370;-79
2020/12/18 13:11:16;;;;;;;13.47;12.17;;;;;;;12.13;66.39;99721.66;5008722;28;41858;-81
2020/12/18 13:13:43;;;;;;;13.40;12.20;;;;;;;11.87;66.22;99708.00;5009959;28;40519;-80
2020/12/18 13:16:10;;;;;;;13.17;11.87;;;;;;;11.68;67.05;99699.31;5009639;28;42557;-80
2020/12/18 13:18:39;;;;;;;12.47;11.37;;;;;;;11.62;67.57;99710.22;5097120;22;43103;-79
2020/12/18 13:21:07;;;;;;;12.67;11.50;;;;;;;11.57;67.57;99698.16;5007397;28;42142;-78
2020/12/18 13:23:34;;;;;;;13.27;12.00;;;;;;;11.37;67.60;99697.44;4993736;28;41800;-78
2020/12/18 13:26:01;;;;;;;13.60;12.30;;;;;;;11.26;67.52;99709.50;5008786;28;42544;-78
2020/12/18 13:31:05;;;;;;;12.20;10.97;;;;;;;10.86;67.73;99689.50;5043520;28;41611;-78
2020/12/18 13:33:33;;;;;;;13.70;12.30;;;;;;;10.75;67.56;99698.84;5014197;28;41956;-78
2020/12/18 13:36:01;;;;;;;13.37;12.07;;;;;;;10.63;67.91;99690.66;5047734;28;41674;-78
2020/12/18 13:38:28;;;;;;;14.23;12.53;;;;;;;10.50;68.42;99686.88;5029880;28;44858;-81
2020/12/18 13:40:56;;;;;;;16.47;14.60;;;;;;;10.29;68.17;99684.31;5145925;22;42970;-80
2020/12/18 13:43:24;;;;;;;15.50;13.90;;;;;;;10.08;68.76;99680.88;5066351;28;40090;-80
2020/12/18 13:45:51;;;;;;;15.00;13.50;;;;;;;9.94;69.15;99682.47;5064928;28;41350;-79
2020/12/18 13:48:18;;;;;;;16.17;13.87;;;;;;;9.79;69.31;99675.22;5065326;28;43374;-80
2020/12/18 13:50:45;;;;;;;15.73;14.13;;;;;;;9.75;70.20;99676.31;5065536;28;42855;-80
2020/12/18 13:53:13;;;;;;;16.50;14.80;;;;;;;9.65;70.06;99679.38;5125922;22;39530;-79
2020/12/18 13:55:40;;;;;;;17.40;15.50;;;;;;;9.57;70.11;99678.88;4989194;28;42665;-80
2020/12/18 13:58:10;;;;;;;17.07;15.37;;;;;;;9.50;70.47;99687.16;5006118;28;42986;-84
2020/12/18 14:00:37;;;;;;;18.30;15.90;;;;;;;9.37;70.54;99684.19;5006372;28;42478;-85
2020/12/18 14:03:04;;;;;;;17.83;15.63;;;;;;;9.21;70.71;99677.84;5007206;28;40960;-84
2020/12/18 14:05:31;;;;;;;19.57;16.60;;;;;;;9.12;71.45;99683.56;5096313;22;43076;-83
2020/12/18 14:07:58;;;;;;;18.90;16.33;;;;;;;8.99;71.39;99686.72;4991107;28;44274;-83
2020/12/18 14:10:27;;;;;;;20.27;17.37;;;;;;;8.77;71.85;99669.22;4989597;28;42680;-83
2020/12/18 14:12:53;;;;;;;19.40;17.40;;;;;;;8.55;71.97;99645.47;5006109;28;39950;-84
2020/12/18 14:15:21;;;;;;;19.13;16.87;;;;;;;8.63;72.72;99677.72;5083500;22;42082;-83
2020/12/18 14:17:48;;;;;;;20.03;17.63;;;;;;;8.61;72.68;99679.56;4974020;28;42709;-82
2020/12/18 14:20:16;;;;;;;18.40;16.30;;;;;;;8.59;72.96;99682.25;4976016;28;42773;-82
2020/12/18 14:22:43;;;;;;;18.53;16.47;;;;;;;8.65;73.34;99691.72;4993049;28;39944;-83
2020/12/18 14:25:11;;;;;;;20.47;17.83;;;;;;;8.73;73.33;99700.16;4976321;28;42186;-83
2020/12/18 14:27:39;;;;;;;18.30;15.67;;;;;;;8.79;73.13;99710.47;5073244;22;43373;-83
2020/12/18 14:30:06;;;;;;;18.67;15.63;;;;;;;8.67;73.03;99695.13;4983588;28;44822;-83
2020/12/18 14:32:34;;;;;;;19.00;15.73;;;;;;;8.83;73.16;99705.91;5011759;28;40256;-83
2020/12/18 14:35:02;;;;;;;19.10;16.40;;;;;;;8.65;73.22;99692.53;4987361;28;44219;-83
2020/12/18 14:37:32;;;;;;;20.70;16.30;;;;;;;8.59;72.98;99687.53;4990947;28;43210;-82
2020/12/18 14:40:00;;;;;;;19.13;16.23;;;;;;;8.63;73.38;99707.63;5106559;22;42834;-83
2020/12/18 14:42:28;;;;;;;18.17;15.67;;;;;;;8.53;73.28;99706.25;5070714;28;40378;-84
2020/12/18 14:44:56;;;;;;;19.27;17.33;;;;;;;8.25;73.68;99677.47;5053417;28;43364;-86
2020/12/18 14:47:23;;;;;;;18.60;16.87;;;;;;;8.27;73.57;99715.19;5049776;28;43197;-84
2020/12/18 14:49:50;;;;;;;16.73;15.03;;;;;;;8.14;73.82;99710.47;5050787;28;42739;-83
2020/12/18 14:52:18;;;;;;;19.00;16.00;;;;;;;7.91;74.45;99700.81;5103916;22;40699;-84
2020/12/18 14:54:45;;;;;;;17.13;15.10;;;;;;;7.82;74.58;99709.91;4993084;28;44352;-83
2020/12/18 14:57:13;;;;;;;16.67;14.90;;;;;;;7.70;75.05;99706.88;5009895;28;43529;-83
2020/12/18 14:59:41;;;;;;;17.43;14.93;;;;;;;7.63;75.22;99718.56;4993707;28;42433;-83
2020/12/18 15:02:09;;;;;;;16.00;14.30;;;;;;;7.52;75.54;99717.19;5101784;22;40355;-83
2020/12/18 15:04:37;;;;;;;19.17;16.63;;;;;;;7.21;75.98;99679.66;5016213;28;42560;-83
2020/12/18 15:07:04;;;;;;;16.70;15.00;;;;;;;7.44;75.90;99707.81;5015710;28;43689;-82
2020/12/18 15:09:32;;;;;;;20.57;17.00;;;;;;;7.36;76.50;99700.19;5031667;28;42443;-83
2020/12/18 15:11:59;;;;;;;18.50;16.50;;;;;;;7.31;76.23;99701.25;5015896;28;41574;-83
2020/12/18 15:14:26;;;;;;;16.87;15.07;;;;;;;7.32;76.35;99709.13;5127627;22;43242;-81
2020/12/18 15:16:54;;;;;;;18.80;15.67;;;;;;;7.23;76.69;99696.28;5052201;28;42208;-82
2020/12/18 15:19:22;;;;;;;18.03;14.70;;;;;;;6.99;76.48;99666.41;5053005;28;42483;-84
2020/12/18 15:21:50;;;;;;;19.63;17.13;;;;;;;7.14;76.96;99709.78;5035405;28;40252;-82
2020/12/18 15:24:17;;;;;;;21.23;17.77;;;;;;;6.72;77.34;99651.56;5035498;28;42906;-82
2020/12/18 15:26:49;;;;;;;21.50;18.40;;;;;;;7.04;77.72;99716.28;5150115;22;43585;-83
2020/12/18 15:29:16;;;;;;;19.57;16.57;;;;;;;6.93;77.78;99710.50;5068181;28;42004;-83
2020/12/18 15:31:44;;;;;;;18.80;16.73;;;;;;;6.83;77.55;99695.03;5050667;28;40437;-83
2020/12/18 15:34:11;;;;;;;24.80;17.27;;;;;;;6.94;77.65;99717.50;5060996;28;43316;-82
2020/12/18 15:36:46;;;;;;;26.30;16.80;;;;;;;6.84;77.94;99712.53;5104168;22;42481;31
2020/12/18 15:39:14;;;;;;;20.43;17.07;;;;;;;6.68;77.82;99699.94;4970718;28;42812;-83
2020/12/18 15:41:42;;;;;;;19.03;16.43;;;;;;;6.64;77.92;99691.31;4989626;28;40193;-82
2020/12/18 15:44:09;;;;;;;22.27;16.90;;;;;;;6.70;78.13;99711.28;4973270;28;43457;-83
2020/12/18 15:46:37;;;;;;;19.83;17.03;;;;;;;6.72;78.41;99702.41;4972537;28;44976;-83
2020/12/18 15:49:04;;;;;;;39.83;26.90;;;;;;;6.73;78.32;99704.16;5094556;23;43238;-82
2020/12/18 15:51:31;;;;;;;31.37;23.70;;;;;;;6.56;78.39;99672.25;5047083;28;39808;-83
2020/12/18 15:53:59;;;;;;;24.67;18.93;;;;;;;6.68;78.50;99695.53;5047864;28;41748;-83
2020/12/18 15:56:28;;;;;;;22.37;17.73;;;;;;;6.70;78.34;99688.44;5025765;28;44632;-82
2020/12/18 15:58:56;;;;;;;28.30;21.73;;;;;;;6.59;78.63;99674.78;5048413;28;43606;-83
2020/12/18 16:01:23;;;;;;;21.80;18.57;;;;;;;6.78;78.49;99701.38;5146117;22;40051;-83
2020/12/18 16:03:50;;;;;;;25.53;19.17;;;;;;;6.70;78.55;99684.97;5068886;28;41760;-84
2020/12/18 16:06:21;;;;;;;24.17;19.23;;;;;;;6.73;78.44;99695.38;5051551;28;44343;-82
2020/12/18 16:08:48;;;;;;;27.37;21.47;;;;;;;6.73;78.38;99696.25;5049628;28;42926;-83
2020/12/18 16:11:17;;;;;;;19.97;16.83;;;;;;;6.69;78.26;99691.13;5046159;28;40352;-83
2020/12/18 16:13:44;;;;;;;20.80;17.33;;;;;;;6.62;78.66;99689.63;5097282;22;41277;-85
2020/12/18 16:16:12;;;;;;;23.97;19.10;;;;;;;6.64;78.96;99698.34;4991851;28;43745;-83
2020/12/18 16:18:39;;;;;;;23.77;18.40;;;;;;;6.46;78.81;99684.00;4992006;28;41954;-83
2020/12/18 16:21:08;;;;;;;20.97;17.73;;;;;;;6.39;79.29;99683.34;4992217;28;39942;-83
2020/12/18 16:23:36;;;;;;;20.97;16.03;;;;;;;6.29;79.27;99691.59;5101739;22;42650;-84
2020/12/18 16:26:05;;;;;;;20.80;17.80;;;;;;;6.12;79.38;99685.09;5030601;28;44409;-84
2020/12/18 16:28:34;;;;;;;21.90;18.23;;;;;;;5.94;79.27;99680.38;5013956;28;42675;-83
2020/12/18 16:31:01;;;;;;;22.43;18.47;;;;;;;5.64;79.85;99633.97;5013620;28;40353;-84
2020/12/18 16:33:28;;;;;;;25.70;20.57;;;;;;;5.67;80.26;99660.19;5002105;28;43787;-83
2020/12/18 16:35:56;;;;;;;24.83;20.23;;;;;;;5.80;80.19;99679.94;5093354;22;41866;-84
2020/12/18 16:38:26;;;;;;;26.30;22.03;;;;;;;5.75;80.26;99684.44;5015217;28;41089;-84
2020/12/18 16:40:59;;;;;;;25.83;19.70;;;;;;;5.56;80.33;99662.25;5031688;28;38731;-83
2020/12/18 16:43:28;;;;;;;23.50;18.40;;;;;;;5.64;80.47;99676.03;5019191;28;41807;-83
2020/12/18 16:45:56;;;;;;;21.20;17.70;;;;;;;5.65;80.30;99677.75;5011486;28;43695;-84
2020/12/18 16:48:23;;;;;;;19.10;16.03;;;;;;;5.75;80.09;99684.44;5112199;22;43378;-84
2020/12/18 16:50:51;;;;;;;19.97;16.43;;;;;;;5.74;79.99;99666.94;5031541;28;41170;-85
2020/12/18 16:53:18;;;;;;;23.67;17.67;;;;;;;5.88;80.29;99683.22;5015604;28;43005;-85
2020/12/18 16:55:46;;;;;;;22.73;16.87;;;;;;;5.84;80.20;99670.16;5031099;28;43134;-84
2020/12/18 17:01:03;;;;;;;22.50;18.70;;;;;;;6.02;80.04;99683.66;4989114;28;39751;-83
2020/12/18 17:03:30;;;;;;;23.50;18.83;;;;;;;6.06;79.99;99674.72;5007560;28;41580;-82
2020/12/18 17:05:57;;;;;;;21.33;17.87;;;;;;;6.08;79.96;99677.31;5003908;28;44340;-83
2020/12/18 17:08:24;;;;;;;22.40;18.43;;;;;;;6.10;80.25;99680.78;4996251;28;42128;-83
2020/12/18 17:10:51;;;;;;;23.00;18.20;;;;;;;6.02;79.90;99664.38;5097126;22;40728;-83
2020/12/18 17:13:18;;;;;;;21.10;17.13;;;;;;;6.06;80.14;99671.25;5014640;28;42548;-83
2020/12/18 17:15:50;;;;;;;19.47;16.33;;;;;;;6.15;80.34;99685.91;5014213;28;43244;-83
2020/12/18 17:18:21;;;;;;;20.47;17.10;;;;;;;6.19;79.98;99684.88;5014121;28;41256;-82
2020/12/18 17:20:50;;;;;;;22.40;18.10;;;;;;;5.83;80.19;99614.09;5030233;28;41305;-82
2020/12/18 17:23:26;;;;;;;23.03;19.80;;;;;;;6.24;80.26;99678.56;5198641;22;41470;-83
2020/12/18 17:26:00;;;;;;;23.00;19.30;;;;;;;6.02;80.47;99619.69;5029244;28;43030;-82
2020/12/18 17:28:36;;;;;;;26.37;22.43;;;;;;;6.32;81.01;99659.91;5016784;28;41293;-83
2020/12/18 17:31:17;;;;;;;24.80;19.90;;;;;;;6.32;80.69;99659.91;4995534;28;39183;-82
2020/12/18 17:34:02;;;;;;;25.30;19.77;;;;;;;6.36;80.48;99656.28;5254494;22;41361;-83
2020/12/18 17:36:48;;;;;;;23.17;18.93;;;;;;;6.38;80.41;99660.59;5032289;28;42246;-82
2020/12/18 17:39:17;;;;;;;23.30;18.40;;;;;;;6.00;80.37;99596.06;5033381;28;42081;-83
